createdAt,value
2022-08-01T00:00:16.436Z,1.40
2022-08-01T00:05:17.841Z,1.30
2022-08-01T00:10:19.256Z,1.40
2022-08-01T00:15:20.676Z,1.23
2022-08-01T00:20:22.104Z,1.13
2022-08-01T00:25:34.400Z,1.20
2022-08-01T00:30:36.609Z,1.23
2022-08-01T00:35:38.008Z,1.27
2022-08-01T00:40:39.443Z,0.90
2022-08-01T00:45:40.846Z,1.33
2022-08-01T00:50:42.380Z,1.10
2022-08-01T00:55:43.782Z,1.13
2022-08-01T01:00:53.859Z,1.00
2022-08-01T01:06:19.032Z,1.00
2022-08-01T01:11:29.175Z,1.30
2022-08-01T01:16:30.572Z,1.00
2022-08-01T01:21:49.641Z,1.10
2022-08-01T01:27:11.635Z,1.20
2022-08-01T01:32:34.744Z,1.08
2022-08-01T01:37:36.274Z,1.13
2022-08-01T01:42:37.729Z,1.15
2022-08-01T01:47:39.138Z,1.48
2022-08-01T01:52:40.988Z,1.25
2022-08-01T01:57:42.640Z,1.10
2022-08-01T02:02:44.197Z,1.35
2022-08-01T02:07:45.681Z,1.23
2022-08-01T02:12:50.777Z,1.25
2022-08-01T02:17:52.240Z,1.20
2022-08-01T02:22:56.934Z,1.30
2022-08-01T02:28:05.684Z,1.23
2022-08-01T02:33:21.852Z,1.35
2022-08-01T02:38:24.492Z,1.38
2022-08-01T02:43:26.137Z,1.23
2022-08-01T02:48:27.669Z,1.42
2022-08-01T02:53:38.992Z,1.40
2022-08-01T02:58:45.861Z,1.27
2022-08-01T03:03:47.276Z,1.20
2022-08-01T03:08:49.593Z,1.33
2022-08-01T03:13:51.445Z,1.20
2022-08-01T03:18:54.085Z,1.38
2022-08-01T03:23:57.980Z,1.10
2022-08-01T03:29:11.805Z,1.15
2022-08-01T03:34:13.208Z,1.20
2022-08-01T03:39:15.950Z,1.40
2022-08-01T03:44:19.877Z,1.20
2022-08-01T03:49:23.396Z,1.30
2022-08-01T03:54:25.745Z,1.35
2022-08-01T03:59:27.145Z,1.00
2022-08-01T04:04:29.256Z,1.30
2022-08-01T04:09:32.421Z,1.20
2022-08-01T04:14:33.939Z,1.60
2022-08-01T04:19:35.372Z,1.33
2022-08-01T04:24:36.904Z,1.30
2022-08-01T04:29:38.333Z,1.40
2022-08-01T04:34:40.939Z,1.23
2022-08-01T04:39:50.467Z,1.40
2022-08-01T04:44:52.677Z,1.30
2022-08-01T04:49:54.472Z,1.27
2022-08-01T04:54:55.870Z,1.40
2022-08-01T04:59:57.798Z,1.48
2022-08-01T05:04:59.363Z,1.10
2022-08-01T05:10:02.204Z,1.20
2022-08-01T05:15:11.727Z,1.50
2022-08-01T05:20:14.510Z,1.40
2022-08-01T05:25:20.364Z,1.52
2022-08-01T05:30:26.383Z,1.15
2022-08-01T05:35:48.997Z,1.40
2022-08-01T05:40:49.199Z,1.30
2022-08-01T05:45:50.647Z,1.20
2022-08-01T05:50:58.236Z,1.35
2022-08-01T05:56:00.199Z,1.45
2022-08-01T06:01:01.633Z,1.30
2022-08-01T06:06:03.480Z,1.30
2022-08-01T06:11:04.924Z,0.93
2022-08-01T06:16:06.358Z,1.30
2022-08-01T06:21:07.837Z,1.25
2022-08-01T06:26:09.490Z,1.10
2022-08-01T06:31:13.010Z,1.55
2022-08-01T06:36:14.422Z,1.40
2022-08-01T06:41:15.821Z,1.00
2022-08-01T06:46:17.241Z,0.88
2022-08-01T06:51:20.815Z,1.20
2022-08-01T06:56:23.187Z,1.10
2022-08-01T07:01:24.662Z,1.20
2022-08-01T07:06:26.181Z,1.15
2022-08-01T07:11:27.593Z,1.10
2022-08-01T07:16:29.012Z,1.23
2022-08-01T07:21:39.915Z,1.30
2022-08-01T07:26:53.335Z,1.20
2022-08-01T07:31:56.396Z,1.20
2022-08-01T07:36:57.872Z,1.05
2022-08-01T07:42:07.218Z,1.27
2022-08-01T07:47:09.669Z,1.17
2022-08-01T07:52:11.109Z,1.25
2022-08-01T07:57:12.579Z,1.60
2022-08-01T08:02:14.058Z,1.13
2022-08-01T08:07:15.548Z,1.42
2022-08-01T08:12:16.946Z,1.20
2022-08-01T08:17:19.920Z,1.10
2022-08-01T08:22:21.324Z,0.80
2022-08-01T08:27:22.730Z,1.27
2022-08-01T08:32:24.139Z,0.90
2022-08-01T08:37:25.549Z,1.30
2022-08-01T08:42:32.996Z,1.02
2022-08-01T08:47:34.412Z,1.10
2022-08-01T08:52:36.419Z,1.05
2022-08-01T08:57:40.388Z,1.10
2022-08-01T09:02:45.707Z,1.30
2022-08-01T09:07:47.239Z,0.90
2022-08-01T09:13:11.806Z,0.93
2022-08-01T09:18:41.826Z,0.90
2022-08-01T09:23:54.459Z,0.80
2022-08-01T09:28:56.153Z,1.10
2022-08-01T09:33:59.173Z,0.90
2022-08-01T09:39:12.358Z,1.15
2022-08-01T09:44:13.977Z,1.00
2022-08-01T09:49:15.670Z,0.85
2022-08-01T09:54:17.373Z,1.02
2022-08-01T09:59:19.304Z,0.95
2022-08-01T10:04:21.598Z,1.00
2022-08-01T10:09:35.947Z,0.88
2022-08-01T10:14:42.033Z,0.70
2022-08-01T10:19:50.389Z,0.82
2022-08-01T10:24:55.945Z,0.80
2022-08-01T10:30:08.593Z,0.70
2022-08-01T10:35:45.829Z,1.17
2022-08-01T10:40:42.708Z,0.80
2022-08-01T10:45:44.348Z,0.60
2022-08-01T10:50:49.857Z,0.70
2022-08-01T10:55:57.382Z,0.60
2022-08-01T11:01:16.086Z,1.08
2022-08-01T11:06:22.564Z,0.60
2022-08-01T11:11:24.353Z,0.70
2022-08-01T11:16:26.837Z,0.63
2022-08-01T11:21:58.961Z,0.60
2022-08-01T11:27:17.633Z,0.60
2022-08-01T11:32:25.505Z,0.57
2022-08-01T11:37:30.600Z,0.50
2022-08-01T11:42:32.369Z,0.50
2022-08-01T11:47:48.133Z,0.50
2022-08-01T11:52:51.701Z,0.50
2022-08-01T11:58:06.260Z,0.50
2022-08-01T12:03:08.558Z,0.40
2022-08-01T12:08:09.983Z,0.40
2022-08-01T12:13:11.557Z,0.60
2022-08-01T12:18:12.969Z,0.40
2022-08-01T12:23:15.405Z,0.60
2022-08-01T12:28:18.782Z,0.45
2022-08-01T12:33:21.225Z,0.60
2022-08-01T12:38:27.735Z,0.60
2022-08-01T12:43:29.689Z,0.70
2022-08-01T12:48:31.360Z,0.50
2022-08-01T12:53:40.566Z,0.57
2022-08-01T12:58:43.013Z,0.50
2022-08-01T13:03:58.353Z,0.68
2022-08-01T13:14:07.990Z,0.80
2022-08-01T13:19:09.406Z,0.50
2022-08-01T13:24:13.050Z,0.40
2022-08-01T13:29:15.992Z,0.60
2022-08-01T13:34:17.395Z,0.60
2022-08-01T13:39:37.239Z,0.63
2022-08-01T13:44:38.672Z,0.70
2022-08-01T13:49:40.798Z,0.60
2022-08-01T13:54:42.493Z,0.50
2022-08-01T13:59:43.928Z,0.40
2022-08-01T14:04:45.329Z,0.50
2022-08-01T14:10:04.884Z,0.43
2022-08-01T14:15:08.563Z,0.35
2022-08-01T14:20:11.289Z,0.40
2022-08-01T14:25:12.689Z,0.30
2022-08-01T14:30:25.594Z,0.50
2022-08-01T14:35:27.141Z,0.30
2022-08-01T14:40:28.616Z,0.60
2022-08-01T14:45:30.089Z,0.40
2022-08-01T14:50:31.725Z,0.52
2022-08-01T14:55:33.138Z,0.82
2022-08-01T15:00:35.014Z,0.55
2022-08-01T15:05:37.178Z,0.60
2022-08-01T15:10:38.778Z,0.77
2022-08-01T15:15:40.173Z,0.95
2022-08-01T15:20:41.628Z,0.88
2022-08-01T15:25:43.029Z,0.80
2022-08-01T15:30:44.433Z,0.68
2022-08-01T15:35:45.898Z,0.70
2022-08-01T15:40:47.305Z,0.88
2022-08-01T15:45:49.192Z,0.63
2022-08-01T15:50:50.933Z,0.50
2022-08-01T15:55:52.962Z,0.60
2022-08-01T16:00:54.417Z,0.60
2022-08-01T16:05:55.813Z,0.63
2022-08-01T16:10:57.234Z,0.63
2022-08-01T16:15:59.517Z,0.60
2022-08-01T16:21:01.016Z,0.60
2022-08-01T16:26:02.540Z,0.80
2022-08-01T16:31:14.953Z,0.65
2022-08-01T16:36:25.477Z,0.95
2022-08-01T16:41:27.235Z,0.70
2022-08-01T16:46:28.953Z,0.70
2022-08-01T16:51:32.536Z,0.60
2022-08-01T16:56:34.428Z,0.60
2022-08-01T17:01:59.739Z,0.68
2022-08-01T17:06:57.794Z,0.80
2022-08-01T17:11:59.213Z,0.45
2022-08-01T17:17:00.622Z,0.45
2022-08-01T17:22:02.176Z,0.47
2022-08-01T17:27:04.259Z,0.50
2022-08-01T17:32:07.118Z,0.40
2022-08-01T17:37:09.037Z,0.40
2022-08-01T17:42:10.999Z,0.40
2022-08-01T17:47:14.649Z,0.50
2022-08-01T17:52:26.057Z,0.40
2022-08-01T17:57:30.924Z,0.40
2022-08-01T18:02:32.342Z,0.50
2022-08-01T18:08:01.432Z,0.40
2022-08-01T18:12:55.278Z,0.60
2022-08-01T18:17:57.837Z,0.45
2022-08-01T18:22:59.241Z,0.50
2022-08-01T18:28:22.539Z,0.30
2022-08-01T18:33:22.437Z,0.30
2022-08-01T18:38:24.273Z,0.30
2022-08-01T18:43:25.809Z,0.30
2022-08-01T18:48:27.229Z,0.35
2022-08-01T18:53:28.636Z,0.40
2022-08-01T18:58:30.065Z,0.30
2022-08-01T19:03:32.290Z,0.43
2022-08-01T19:08:33.695Z,0.50
2022-08-01T19:13:35.389Z,0.30
2022-08-01T19:18:38.050Z,0.40
2022-08-01T19:23:58.373Z,0.40
2022-08-01T19:29:02.748Z,0.40
2022-08-01T19:34:04.161Z,0.50
2022-08-01T19:39:06.062Z,0.40
2022-08-01T19:44:07.790Z,0.45
2022-08-01T19:49:12.484Z,0.30
2022-08-01T19:54:13.989Z,0.33
2022-08-01T19:59:16.821Z,0.40
2022-08-01T20:04:18.305Z,0.50
2022-08-01T20:09:19.925Z,0.40
2022-08-01T20:14:25.147Z,0.50
2022-08-01T20:19:26.639Z,0.30
2022-08-01T20:24:28.813Z,0.32
2022-08-01T20:29:32.321Z,0.30
2022-08-01T20:34:37.873Z,0.50
2022-08-01T20:39:43.008Z,0.30
2022-08-01T20:44:45.698Z,0.30
2022-08-01T20:49:47.098Z,0.57
2022-08-01T20:54:48.506Z,0.50
2022-08-01T21:00:01.864Z,0.60
2022-08-01T21:05:07.293Z,0.40
2022-08-01T21:15:31.242Z,0.50
2022-08-01T21:20:33.524Z,0.60
2022-08-01T21:25:35.128Z,0.45
2022-08-01T21:30:36.593Z,0.45
2022-08-01T21:35:38.042Z,0.60
2022-08-01T21:40:39.468Z,0.60
2022-08-01T21:45:57.414Z,0.65
2022-08-01T21:51:02.628Z,0.60
2022-08-01T21:56:13.505Z,0.55
2022-08-01T22:01:21.509Z,0.60
2022-08-01T22:06:22.984Z,0.60
2022-08-01T22:11:30.805Z,0.70
2022-08-01T22:16:32.808Z,0.68
2022-08-01T22:21:34.221Z,0.70
2022-08-01T22:26:36.822Z,0.60
2022-08-01T22:31:38.299Z,0.50
2022-08-01T22:36:39.710Z,0.70
2022-08-01T22:42:01.939Z,0.52
2022-08-01T22:47:44.088Z,0.60
2022-08-01T22:53:11.470Z,0.50
2022-08-01T22:58:12.916Z,0.50
2022-08-01T23:03:28.553Z,0.50
2022-08-01T23:08:32.988Z,0.50
2022-08-01T23:13:34.413Z,0.50
2022-08-01T23:18:35.837Z,0.50
2022-08-01T23:23:46.030Z,0.57
2022-08-01T23:28:47.429Z,0.40
2022-08-01T23:33:48.889Z,0.45
2022-08-01T23:38:50.293Z,0.60
2022-08-01T23:43:52.313Z,0.40
2022-08-01T23:48:54.049Z,0.40
2022-08-01T23:53:55.525Z,0.55
2022-08-01T23:58:56.926Z,0.40
